Time;durP1;ratioP1;P1;durP2;ratioP2;P2;SDS_P1;SDS_P2;PMS_P1;PMS_P2;Temp;Humidity;BMP_temperature;BMP_pressure;BME280_temperature;BME280_humidity;BME280_pressure;Samples;Min_cycle;Max_cycle;Signal;HPM_P1;HPM_P2
2023/06/15 00:01:47;;;;;;;7.68;3.85;;;17.20;87.60;;;;;;5055732;28;20086;-78
2023/06/15 00:04:13;;;;;;;9.32;4.30;;;17.10;87.80;;;;;;5038427;28;20086;-77
2023/06/15 00:06:39;;;;;;;8.65;3.40;;;17.10;87.70;;;;;;5030406;28;20479;-77
2023/06/15 00:09:05;;;;;;;8.90;3.67;;;17.10;87.90;;;;;;5047812;28;20431;-77
2023/06/15 00:11:30;;;;;;;4.70;3.30;;;17.00;87.90;;;;;;5079110;28;20040;-77
2023/06/15 00:13:57;;;;;;;6.68;3.50;;;17.00;88.10;;;;;;5084468;28;20032;-78
2023/06/15 00:16:23;;;;;;;6.20;3.33;;;17.00;88.30;;;;;;5060475;28;20043;-77
2023/06/15 00:18:54;;;;;;;5.40;3.22;;;16.90;88.30;;;;;;5084755;28;20045;-77
2023/06/15 00:21:22;;;;;;;6.53;3.88;;;16.90;88.40;;;;;;5051744;28;20052;-77
2023/06/15 00:23:48;;;;;;;8.02;3.55;;;16.90;88.40;;;;;;5083234;28;20469;-77
2023/06/15 00:26:14;;;;;;;5.78;3.08;;;16.80;88.20;;;;;;5057491;28;20097;-77
2023/06/15 00:28:40;;;;;;;9.25;3.55;;;16.90;88.30;;;;;;5072442;28;20538;-78
2023/06/15 00:31:05;;;;;;;5.55;3.33;;;16.80;88.40;;;;;;5072254;28;20087;-77
2023/06/15 00:33:31;;;;;;;5.75;3.17;;;16.80;88.60;;;;;;5036395;28;20154;-77
2023/06/15 00:35:58;;;;;;;5.05;3.28;;;16.80;88.50;;;;;;5058139;28;20045;-77
2023/06/15 00:38:24;;;;;;;6.30;3.40;;;16.70;88.50;;;;;;5053823;28;20049;-77
2023/06/15 00:40:50;;;;;;;13.70;4.35;;;16.70;88.60;;;;;;5033424;28;20052;-78
2023/06/15 00:43:15;;;;;;;9.02;3.88;;;16.60;88.40;;;;;;5072565;28;20044;-77
2023/06/15 00:45:41;;;;;;;6.05;3.40;;;16.60;88.60;;;;;;5075025;28;20037;-78
2023/06/15 00:48:07;;;;;;;6.53;3.50;;;16.60;88.60;;;;;;5056135;28;20470;-77
2023/06/15 00:50:33;;;;;;;7.53;3.08;;;16.60;88.80;;;;;;5086725;28;20097;-77
2023/06/15 00:53:00;;;;;;;7.18;3.58;;;16.60;89.00;;;;;;5079253;28;20071;-77
2023/06/15 00:55:27;;;;;;;9.75;4.18;;;16.50;89.20;;;;;;5076336;28;20132;-78
2023/06/15 00:57:52;;;;;;;9.18;3.40;;;16.50;89.30;;;;;;5027508;28;20049;-78
2023/06/15 01:00:18;;;;;;;6.15;3.35;;;16.50;89.50;;;;;;5050057;28;20051;-78
2023/06/15 01:02:44;;;;;;;6.68;3.70;;;16.40;89.60;;;;;;5055903;28;20122;-78
2023/06/15 01:05:11;;;;;;;6.57;3.50;;;16.40;89.80;;;;;;5034865;28;20038;-78
2023/06/15 01:07:40;;;;;;;7.70;3.53;;;16.40;89.80;;;;;;5048142;28;20139;-78
2023/06/15 01:10:09;;;;;;;8.18;3.50;;;16.40;89.80;;;;;;5026908;28;20041;-78
2023/06/15 01:12:40;;;;;;;6.47;3.60;;;16.30;90.00;;;;;;5042520;28;20055;-77
2023/06/15 01:15:10;;;;;;;5.97;3.80;;;16.30;90.00;;;;;;5050093;28;20083;-78
2023/06/15 01:17:37;;;;;;;6.05;3.42;;;16.20;90.10;;;;;;5042986;28;20045;-77
2023/06/15 01:20:07;;;;;;;6.47;3.35;;;16.10;90.20;;;;;;5049097;28;20491;-77
2023/06/15 01:22:44;;;;;;;10.10;3.92;;;16.10;90.30;;;;;;5044266;28;20052;-78
2023/06/15 01:25:26;;;;;;;6.07;3.53;;;16.10;90.50;;;;;;5035254;28;20815;-77
2023/06/15 01:27:58;;;;;;;9.43;3.42;;;16.00;90.60;;;;;;5041142;28;20751;-77
2023/06/15 01:30:24;;;;;;;6.85;3.80;;;16.00;90.50;;;;;;5039060;28;20059;-77
2023/06/15 01:32:50;;;;;;;7.07;3.97;;;16.00;90.50;;;;;;5024137;28;20442;-77
2023/06/15 01:35:16;;;;;;;7.50;4.13;;;16.00;90.60;;;;;;5023148;28;20046;-77
2023/06/15 01:37:43;;;;;;;7.82;3.83;;;15.90;90.70;;;;;;5037831;28;20103;-77
2023/06/15 01:40:09;;;;;;;6.30;3.63;;;15.80;90.80;;;;;;5039808;28;20531;-77
2023/06/15 01:42:35;;;;;;;6.95;4.30;;;15.80;90.90;;;;;;5025639;28;20466;-77
2023/06/15 01:45:01;;;;;;;8.57;3.80;;;15.80;91.00;;;;;;5034707;28;20037;-77
2023/06/15 01:47:26;;;;;;;6.28;3.58;;;15.70;91.00;;;;;;5037751;28;20045;-77
2023/06/15 01:49:52;;;;;;;7.35;4.00;;;15.70;91.10;;;;;;5036946;28;20520;-77
2023/06/15 01:52:18;;;;;;;7.38;3.40;;;15.70;91.10;;;;;;5051849;28;20072;-77
2023/06/15 01:54:44;;;;;;;7.85;3.63;;;15.60;91.10;;;;;;5030901;28;20654;-77
2023/06/15 01:57:10;;;;;;;10.20;4.25;;;15.60;91.20;;;;;;5032372;28;20060;-77
2023/06/15 01:59:36;;;;;;;8.05;3.75;;;15.60;91.30;;;;;;5050883;28;20631;-77
2023/06/15 02:02:02;;;;;;;6.63;3.75;;;15.60;91.30;;;;;;5074803;28;20431;-78
2023/06/15 02:04:27;;;;;;;6.05;3.65;;;15.50;91.40;;;;;;5077059;28;20037;-77
2023/06/15 02:06:53;;;;;;;6.20;3.60;;;15.50;91.40;;;;;;5032968;28;20418;-78
2023/06/15 02:09:19;;;;;;;8.88;3.58;;;15.40;91.50;;;;;;5034179;28;20071;-77
2023/06/15 02:11:45;;;;;;;9.73;3.70;;;15.40;91.70;;;;;;5053371;28;20119;-77
2023/06/15 02:14:11;;;;;;;6.72;3.85;;;15.30;91.60;;;;;;5035247;28;20123;-77
2023/06/15 02:16:38;;;;;;;8.85;4.03;;;15.30;91.70;;;;;;5062394;28;20037;-77
2023/06/15 02:19:04;;;;;;;6.15;3.42;;;15.30;91.80;;;;;;5070618;28;20055;-77
2023/06/15 02:21:30;;;;;;;8.70;3.70;;;15.30;91.90;;;;;;5076892;28;20047;-77
2023/06/15 02:23:56;;;;;;;7.47;4.25;;;15.30;92.10;;;;;;5083024;28;20036;-77
2023/06/15 02:26:22;;;;;;;5.15;3.80;;;15.20;92.20;;;;;;5038382;28;20123;-77
2023/06/15 02:28:47;;;;;;;8.77;4.07;;;15.20;92.20;;;;;;5063129;28;20051;-77
2023/06/15 02:31:13;;;;;;;9.85;4.18;;;15.20;92.30;;;;;;5042914;28;20180;-77
2023/06/15 02:33:39;;;;;;;7.57;4.03;;;15.20;92.40;;;;;;5036417;28;20040;-78
2023/06/15 02:36:06;;;;;;;7.47;3.70;;;15.20;92.50;;;;;;5051383;28;20051;-77
2023/06/15 02:38:31;;;;;;;5.75;3.63;;;15.20;92.60;;;;;;5067498;28;20135;-76
2023/06/15 02:40:57;;;;;;;5.88;3.58;;;15.10;92.70;;;;;;5058674;28;20143;-76
2023/06/15 02:43:23;;;;;;;6.95;3.47;;;15.10;92.90;;;;;;5073315;28;20044;-77
2023/06/15 02:45:49;;;;;;;6.63;3.92;;;15.10;92.80;;;;;;5079762;28;20036;-77
2023/06/15 02:48:15;;;;;;;6.20;3.80;;;15.10;93.00;;;;;;5067913;28;20128;-77
2023/06/15 02:50:41;;;;;;;6.82;3.60;;;15.00;92.90;;;;;;5036338;28;20073;-77
2023/06/15 02:53:07;;;;;;;6.28;3.40;;;15.00;93.00;;;;;;5069011;28;20358;-77
2023/06/15 02:55:33;;;;;;;7.72;3.60;;;15.00;93.10;;;;;;5039093;28;20393;-77
2023/06/15 02:57:59;;;;;;;6.63;3.80;;;14.90;93.20;;;;;;5014950;28;20131;-77
2023/06/15 03:00:25;;;;;;;6.30;3.55;;;14.90;93.20;;;;;;5048792;28;20065;-77
2023/06/15 03:02:52;;;;;;;8.55;3.88;;;14.90;93.30;;;;;;5042848;28;20075;-78
2023/06/15 03:05:18;;;;;;;8.93;4.20;;;14.90;93.40;;;;;;5042055;28;20037;-77
2023/06/15 03:07:44;;;;;;;7.85;3.58;;;14.80;93.40;;;;;;5047547;28;20495;-76
2023/06/15 03:10:10;;;;;;;5.45;3.70;;;14.70;93.50;;;;;;5056255;28;20056;-77
2023/06/15 03:12:36;;;;;;;6.28;3.88;;;14.70;93.60;;;;;;5084448;28;20598;-77
2023/06/15 03:15:02;;;;;;;6.68;4.07;;;14.70;93.70;;;;;;5055584;28;20064;-77
2023/06/15 03:17:32;;;;;;;8.45;4.78;;;14.60;93.60;;;;;;5038854;28;20493;-77
2023/06/15 03:19:58;;;;;;;5.95;3.67;;;14.60;93.70;;;;;;5044130;28;20041;-77
2023/06/15 03:22:25;;;;;;;8.65;4.13;;;14.60;93.60;;;;;;5051562;28;20148;-77
2023/06/15 03:24:54;;;;;;;4.90;3.42;;;14.60;93.60;;;;;;5069754;28;20041;-77
2023/06/15 03:27:20;;;;;;;8.32;4.00;;;14.50;93.70;;;;;;5054626;28;20049;-77
2023/06/15 03:29:49;;;;;;;7.05;4.28;;;14.50;93.80;;;;;;5038188;28;20500;-77
2023/06/15 03:32:15;;;;;;;8.50;4.20;;;14.40;93.90;;;;;;5039966;28;20524;-77
2023/06/15 03:34:41;;;;;;;7.15;4.03;;;14.20;94.20;;;;;;5033981;28;20372;-77
2023/06/15 03:37:07;;;;;;;8.75;4.10;;;14.20;94.30;;;;;;5043696;28;20128;-77
2023/06/15 03:39:33;;;;;;;6.05;3.50;;;14.30;94.40;;;;;;5062423;28;20095;-77
2023/06/15 03:41:59;;;;;;;6.68;4.43;;;14.30;94.50;;;;;;5048074;28;20045;-77
2023/06/15 03:44:25;;;;;;;5.75;4.10;;;14.30;94.50;;;;;;5049816;28;20434;-77
2023/06/15 03:46:51;;;;;;;6.25;3.80;;;14.30;94.60;;;;;;5037400;28;20772;-77
2023/06/15 03:49:17;;;;;;;8.05;3.50;;;14.30;94.60;;;;;;5068427;28;20040;-77
2023/06/15 03:51:42;;;;;;;6.05;3.92;;;14.30;94.70;;;;;;5040451;28;20190;-77
2023/06/15 03:54:08;;;;;;;9.02;5.03;;;14.30;94.60;;;;;;5042141;28;20052;-77
2023/06/15 03:56:34;;;;;;;12.18;4.18;;;14.30;94.80;;;;;;5041123;28;20074;-77
2023/06/15 03:59:00;;;;;;;5.25;3.60;;;14.30;94.90;;;;;;5053789;28;20060;-77
2023/06/15 04:01:27;;;;;;;8.25;4.43;;;14.30;94.90;;;;;;5093457;28;20044;-77
2023/06/15 04:03:53;;;;;;;9.25;4.63;;;14.30;95.00;;;;;;5074127;28;20345;-78
2023/06/15 04:06:21;;;;;;;10.23;4.22;;;14.30;95.00;;;;;;5055638;28;20070;-77
2023/06/15 04:08:47;;;;;;;6.78;4.22;;;14.30;94.90;;;;;;5070524;28;20044;-77
2023/06/15 04:11:13;;;;;;;8.85;3.92;;;14.30;94.90;;;;;;5055960;28;20055;-77
2023/06/15 04:13:39;;;;;;;9.68;4.35;;;14.40;94.90;;;;;;5060608;28;20048;-77
2023/06/15 04:16:05;;;;;;;7.35;3.63;;;14.40;94.90;;;;;;5076152;28;20074;-77
2023/06/15 04:18:30;;;;;;;8.20;4.35;;;14.40;94.90;;;;;;5076299;28;20116;-77
2023/06/15 04:20:56;;;;;;;10.88;4.50;;;14.40;94.90;;;;;;5068028;28;20040;-77
2023/06/15 04:23:22;;;;;;;9.48;4.10;;;14.30;95.00;;;;;;5083111;28;20461;-77
2023/06/15 04:25:48;;;;;;;10.38;4.43;;;14.30;94.90;;;;;;5067778;28;20043;-77
2023/06/15 04:28:16;;;;;;;8.18;4.30;;;14.30;94.80;;;;;;5100374;28;20476;-77
2023/06/15 04:30:44;;;;;;;6.07;4.10;;;14.40;94.80;;;;;;5054537;28;20338;-77
2023/06/15 04:33:15;;;;;;;6.40;4.10;;;14.40;94.70;;;;;;5056185;28;20055;-77
2023/06/15 04:35:45;;;;;;;7.95;4.07;;;14.50;94.80;;;;;;5072523;28;20068;-78
2023/06/15 04:38:14;;;;;;;9.45;4.20;;;14.50;94.90;;;;;;5067903;28;20052;-78
2023/06/15 04:40:41;;;;;;;7.95;4.32;;;14.50;94.90;;;;;;5070559;28;20040;-78
2023/06/15 04:43:08;;;;;;;6.75;4.10;;;14.60;94.70;;;;;;5053042;28;20036;-78
2023/06/15 04:45:35;;;;;;;6.22;4.32;;;14.60;94.50;;;;;;5022599;28;20230;-78
2023/06/15 04:48:00;;;;;;;7.10;4.10;;;14.70;94.50;;;;;;5038215;28;20044;-78
2023/06/15 04:50:26;;;;;;;7.50;4.15;;;14.70;94.60;;;;;;5061747;28;20055;-78
2023/06/15 04:52:52;;;;;;;8.10;4.65;;;14.80;94.70;;;;;;5084409;28;20044;-78
2023/06/15 04:55:18;;;;;;;9.70;5.00;;;14.80;94.50;;;;;;5036950;28;20048;-78
2023/06/15 04:57:44;;;;;;;10.32;4.80;;;14.80;94.10;;;;;;5043162;28;20372;-79
2023/06/15 05:00:13;;;;;;;7.38;4.38;;;14.90;93.90;;;;;;5073613;28;20052;-78
2023/06/15 05:02:39;;;;;;;10.18;4.30;;;14.90;93.90;;;;;;5081402;28;20051;-78
2023/06/15 05:05:05;;;;;;;7.65;5.13;;;14.90;93.90;;;;;;5072840;28;20036;-78
2023/06/15 05:07:31;;;;;;;7.88;4.68;;;15.00;93.80;;;;;;5055335;28;20059;-78
2023/06/15 05:09:57;;;;;;;13.25;4.70;;;15.00;93.50;;;;;;5033046;28;20040;-79
2023/06/15 05:12:23;;;;;;;9.95;4.35;;;15.00;93.40;;;;;;5069855;28;20048;-78
2023/06/15 05:14:52;;;;;;;8.68;4.47;;;15.10;93.60;;;;;;5054804;28;20447;-78
2023/06/15 05:17:17;;;;;;;11.35;4.70;;;15.10;93.50;;;;;;5064399;28;20056;-76
2023/06/15 05:19:43;;;;;;;9.93;4.57;;;15.20;93.40;;;;;;5053486;28;20529;-79
2023/06/15 05:22:09;;;;;;;8.80;4.53;;;15.20;93.20;;;;;;5054380;28;20044;-78
2023/06/15 05:24:35;;;;;;;10.27;4.72;;;15.30;93.20;;;;;;5064891;28;20046;-77
2023/06/15 05:27:02;;;;;;;9.05;4.78;;;15.30;93.10;;;;;;5054035;28;20048;-77
2023/06/15 05:29:28;;;;;;;8.32;4.70;;;15.30;93.30;;;;;;5062407;28;20457;-78
2023/06/15 05:31:59;;;;;;;8.50;4.25;;;15.40;93.10;;;;;;5074265;28;20168;-77
2023/06/15 05:34:25;;;;;;;7.07;4.10;;;15.40;92.90;;;;;;5060399;28;20037;-77
2023/06/15 05:36:51;;;;;;;8.20;4.60;;;15.50;92.80;;;;;;5050108;28;20138;-77
2023/06/15 05:39:17;;;;;;;11.23;4.53;;;15.50;92.70;;;;;;5076762;28;20579;-77
2023/06/15 05:41:43;;;;;;;10.35;4.88;;;15.60;92.50;;;;;;5060150;28;20044;-77
2023/06/15 05:44:08;;;;;;;8.30;4.43;;;15.60;92.60;;;;;;5060221;28;20135;-77
2023/06/15 05:46:34;;;;;;;7.40;4.20;;;15.60;92.70;;;;;;5033452;28;20040;-77
2023/06/15 05:49:00;;;;;;;7.78;4.13;;;15.70;92.70;;;;;;5046474;28;20052;-77
2023/06/15 05:51:28;;;;;;;8.73;4.35;;;15.70;92.80;;;;;;5072780;28;20067;-79
2023/06/15 05:53:58;;;;;;;8.02;4.55;;;15.80;93.10;;;;;;5078067;28;20044;-78
2023/06/15 05:56:48;;;;;;;9.45;4.50;;;15.80;93.10;;;;;;5073861;28;20195;-79
2023/06/15 05:59:14;;;;;;;12.00;4.50;;;15.90;93.10;;;;;;5054537;28;20542;-78
2023/06/15 06:01:41;;;;;;;8.77;5.07;;;16.00;93.20;;;;;;5063024;28;20055;-79
2023/06/15 06:04:06;;;;;;;8.60;4.30;;;16.00;93.00;;;;;;5095336;28;20059;-78
2023/06/15 06:06:32;;;;;;;8.50;4.40;;;16.10;92.90;;;;;;5073588;28;20051;-79
2023/06/15 06:08:58;;;;;;;5.47;4.00;;;16.10;92.70;;;;;;5076667;28;20128;-79
2023/06/15 06:11:23;;;;;;;6.55;4.45;;;16.20;92.60;;;;;;5075215;28;20076;-78
2023/06/15 06:13:49;;;;;;;9.27;4.70;;;16.20;92.60;;;;;;5080333;28;20050;-79
2023/06/15 06:16:15;;;;;;;9.40;4.28;;;16.30;92.60;;;;;;5061658;28;20044;-78
2023/06/15 06:18:41;;;;;;;7.82;3.92;;;16.30;92.60;;;;;;5073420;28;20082;-78
2023/06/15 06:21:06;;;;;;;8.07;4.28;;;16.40;92.40;;;;;;5080533;28;20082;-78
2023/06/15 06:23:34;;;;;;;7.25;3.78;;;16.40;92.10;;;;;;5069824;28;20040;-78
2023/06/15 06:26:00;;;;;;;7.45;3.75;;;16.50;92.10;;;;;;5063171;28;20047;-79
2023/06/15 06:28:26;;;;;;;7.28;3.85;;;16.50;92.20;;;;;;5058349;28;20048;-79
2023/06/15 06:30:52;;;;;;;9.77;3.72;;;16.60;91.70;;;;;;5075871;28;20598;-79
2023/06/15 06:33:17;;;;;;;9.27;4.38;;;16.70;91.70;;;;;;5077573;28;20044;-79
2023/06/15 06:35:43;;;;;;;7.50;4.57;;;16.70;91.50;;;;;;5062324;28;20071;-79
2023/06/15 06:38:09;;;;;;;12.02;4.82;;;16.80;91.50;;;;;;5058415;28;20467;-79
2023/06/15 06:40:35;;;;;;;10.55;4.00;;;16.80;91.40;;;;;;5083354;28;20043;-79
2023/06/15 06:43:01;;;;;;;10.38;4.07;;;16.90;91.20;;;;;;5070428;28;20717;-79
2023/06/15 06:45:27;;;;;;;10.15;4.72;;;17.00;91.00;;;;;;5068880;28;20059;-79
2023/06/15 06:47:52;;;;;;;31.10;20.15;;;17.00;90.70;;;;;;5046127;28;20044;-79
2023/06/15 06:50:18;;;;;;;15.35;9.18;;;17.10;90.60;;;;;;5061294;28;20046;-79
2023/06/15 06:52:46;;;;;;;6.70;4.40;;;17.20;90.30;;;;;;5069450;28;20036;-80
2023/06/15 06:55:12;;;;;;;8.45;4.10;;;17.30;90.20;;;;;;5066578;28;20140;-79
2023/06/15 06:57:38;;;;;;;6.32;3.53;;;17.30;90.00;;;;;;5056326;28;20053;-79
2023/06/15 07:00:06;;;;;;;12.18;4.30;;;17.40;89.70;;;;;;5035838;28;20107;-79
2023/06/15 07:02:32;;;;;;;9.88;3.47;;;17.50;89.30;;;;;;5041387;28;20038;-79
2023/06/15 07:04:57;;;;;;;7.78;3.58;;;17.50;88.90;;;;;;5035246;28;20492;-79
2023/06/15 07:07:23;;;;;;;9.43;4.00;;;17.60;88.90;;;;;;5021098;28;20450;-79
2023/06/15 07:09:49;;;;;;;5.70;3.15;;;17.70;88.60;;;;;;5037469;28;20069;-80
2023/06/15 07:12:15;;;;;;;6.40;3.30;;;17.80;88.40;;;;;;5047527;28;20056;-79
2023/06/15 07:14:40;;;;;;;5.95;3.30;;;17.80;88.60;;;;;;5042308;28;20048;-79
2023/06/15 07:17:06;;;;;;;5.53;3.33;;;18.00;87.60;;;;;;5028078;28;20044;-79
2023/06/15 07:19:32;;;;;;;5.25;2.95;;;18.10;87.70;;;;;;5019789;28;20044;-79
2023/06/15 07:21:58;;;;;;;9.60;3.38;;;18.10;87.70;;;;;;5047897;28;20075;-78
2023/06/15 07:24:23;;;;;;;7.72;3.55;;;18.20;87.80;;;;;;5031254;28;20037;-79
2023/06/15 07:26:49;;;;;;;5.88;3.10;;;18.30;87.60;;;;;;5035992;28;20032;-79
2023/06/15 07:29:16;;;;;;;7.20;3.47;;;18.40;87.20;;;;;;5037567;28;20041;-78
2023/06/15 07:31:42;;;;;;;4.40;3.00;;;18.50;86.80;;;;;;5014067;28;20037;-78
2023/06/15 07:34:08;;;;;;;7.68;2.95;;;18.60;85.90;;;;;;5024151;28;20040;-79
2023/06/15 07:36:37;;;;;;;13.90;3.20;;;18.60;86.00;;;;;;5029228;28;20118;-79
2023/06/15 07:39:03;;;;;;;8.57;2.90;;;18.70;85.00;;;;;;5027539;28;20044;-79
2023/06/15 07:41:29;;;;;;;7.47;3.00;;;18.80;84.80;;;;;;5051925;28;20048;-79
2023/06/15 07:43:55;;;;;;;6.95;2.85;;;18.90;84.40;;;;;;5048361;28;20060;-79
2023/06/15 07:46:21;;;;;;;5.35;2.95;;;19.10;84.20;;;;;;5033678;28;20799;-78
2023/06/15 07:48:46;;;;;;;8.35;2.80;;;19.10;83.60;;;;;;5045368;28;20381;-79
2023/06/15 07:51:12;;;;;;;4.60;2.78;;;19.20;83.90;;;;;;5012517;28;20580;-80
2023/06/15 07:53:39;;;;;;;7.50;3.00;;;19.30;82.80;;;;;;5051918;28;20074;-79
2023/06/15 07:56:04;;;;;;;4.88;2.92;;;19.50;82.50;;;;;;5023207;28;20048;-79
2023/06/15 07:58:36;;;;;;;5.80;2.80;;;19.50;81.70;;;;;;5023037;28;20361;-79
2023/06/15 08:01:01;;;;;;;9.52;3.13;;;19.60;81.20;;;;;;5036995;28;20048;-79
2023/06/15 08:03:27;;;;;;;5.97;2.80;;;19.70;79.80;;;;;;5017273;28;20037;-79
2023/06/15 08:05:56;;;;;;;6.50;2.60;;;19.80;80.50;;;;;;5028492;28;20052;-79
2023/06/15 08:08:22;;;;;;;5.00;2.65;;;19.90;81.10;;;;;;5023074;28;20072;-78
2023/06/15 08:10:48;;;;;;;7.15;3.40;;;19.90;80.90;;;;;;5041347;28;20386;-81
2023/06/15 08:13:14;;;;;;;7.03;3.33;;;20.00;80.10;;;;;;5037199;28;20041;-77
2023/06/15 08:15:41;;;;;;;4.47;2.90;;;20.00;80.00;;;;;;5022732;28;20090;-79
2023/06/15 08:18:07;;;;;;;6.93;2.60;;;20.20;77.40;;;;;;5053797;28;20053;-78
2023/06/15 08:20:33;;;;;;;9.88;2.60;;;20.20;77.30;;;;;;5053490;28;20073;-79
2023/06/15 08:22:58;;;;;;;5.75;3.03;;;20.30;77.10;;;;;;5054731;28;20044;-79
2023/06/15 08:25:24;;;;;;;6.97;2.92;;;20.30;76.90;;;;;;5060290;28;20048;-78
2023/06/15 08:27:50;;;;;;;5.47;2.90;;;20.30;77.10;;;;;;5013284;28;20045;-78
2023/06/15 08:30:16;;;;;;;7.25;3.08;;;20.40;77.00;;;;;;5015781;28;20037;-80
2023/06/15 08:32:41;;;;;;;6.00;2.83;;;20.50;76.90;;;;;;5038482;28;20458;-78
2023/06/15 08:35:08;;;;;;;6.60;2.80;;;20.50;76.40;;;;;;5038995;28;20123;-78
2023/06/15 08:37:35;;;;;;;8.52;3.05;;;20.60;76.50;;;;;;5039926;28;20482;-81
2023/06/15 08:40:06;;;;;;;6.30;2.60;;;20.70;73.70;;;;;;5049762;28;20110;-79
2023/06/15 08:42:33;;;;;;;10.80;3.08;;;20.70;75.30;;;;;;5037626;28;20139;-79
2023/06/15 08:44:59;;;;;;;4.38;2.50;;;20.90;73.70;;;;;;5010448;28;20041;-78
2023/06/15 08:47:26;;;;;;;4.60;2.75;;;21.00;74.70;;;;;;5036459;28;20107;-79
2023/06/15 08:49:52;;;;;;;7.75;3.13;;;21.10;73.70;;;;;;5056688;28;20057;-79
2023/06/15 08:52:20;;;;;;;6.05;2.45;;;21.10;73.80;;;;;;5028012;28;20065;-79
2023/06/15 08:54:46;;;;;;;8.57;2.50;;;21.20;73.10;;;;;;5043645;28;20090;-79
2023/06/15 08:57:12;;;;;;;8.18;2.83;;;21.20;73.20;;;;;;5046554;28;20718;-79
2023/06/15 08:59:38;;;;;;;6.30;2.70;;;21.20;73.20;;;;;;5056832;28;20048;-79
2023/06/15 09:02:06;;;;;;;10.02;2.95;;;21.30;72.70;;;;;;5056272;28;20486;-79
2023/06/15 09:04:32;;;;;;;6.22;2.97;;;21.40;71.70;;;;;;5086161;28;20078;-79
2023/06/15 09:06:58;;;;;;;7.65;2.92;;;21.60;69.40;;;;;;5061525;28;20033;-79
2023/06/15 09:09:25;;;;;;;7.93;2.72;;;21.50;70.70;;;;;;5092561;28;20523;-78
2023/06/15 09:11:51;;;;;;;5.05;2.53;;;21.50;71.20;;;;;;5060660;28;20131;-79
2023/06/15 09:14:16;;;;;;;6.25;2.80;;;21.60;72.40;;;;;;5070617;28;20174;-78
2023/06/15 09:16:42;;;;;;;9.57;2.80;;;21.80;70.80;;;;;;5080757;28;20040;-78
2023/06/15 09:19:11;;;;;;;8.40;2.75;;;21.80;70.90;;;;;;5070695;28;20048;-79
2023/06/15 09:21:42;;;;;;;6.70;2.58;;;21.90;70.50;;;;;;5066783;28;20044;-81
2023/06/15 09:24:08;;;;;;;4.95;2.58;;;21.90;71.10;;;;;;5075498;28;20040;-79
2023/06/15 09:26:34;;;;;;;10.82;3.00;;;21.90;70.80;;;;;;5059208;28;20123;-79
2023/06/15 09:29:02;;;;;;;5.68;2.85;;;21.90;70.70;;;;;;5041013;28;20067;-79
2023/06/15 09:31:35;;;;;;;10.52;2.78;;;22.00;69.00;;;;;;5071325;28;20094;-79
2023/06/15 09:34:04;;;;;;;7.45;3.00;;;22.20;69.30;;;;;;5028681;28;20072;-79
2023/06/15 09:36:39;;;;;;;4.97;2.60;;;22.30;68.30;;;;;;5077336;28;20465;-79
2023/06/15 09:39:05;;;;;;;8.27;3.20;;;22.40;67.80;;;;;;5082238;28;20079;-79
2023/06/15 09:41:34;;;;;;;6.20;2.92;;;22.50;68.10;;;;;;5051996;28;20068;-79
2023/06/15 09:44:02;;;;;;;5.38;3.70;;;22.50;67.90;;;;;;5056263;28;20679;-79
2023/06/15 09:46:28;;;;;;;4.75;2.83;;;22.50;68.00;;;;;;5092367;28;20032;-79
2023/06/15 09:48:54;;;;;;;6.32;2.80;;;22.50;68.50;;;;;;5053314;28;20041;-79
2023/06/15 09:51:20;;;;;;;6.97;2.63;;;22.60;66.70;;;;;;5070192;28;20079;-79
2023/06/15 09:53:47;;;;;;;5.32;2.97;;;22.70;66.10;;;;;;5077552;28;20036;-79
2023/06/15 09:56:12;;;;;;;6.75;2.60;;;22.80;64.50;;;;;;5063076;28;20524;-80
2023/06/15 09:58:38;;;;;;;9.93;3.10;;;22.80;64.30;;;;;;5091406;28;20079;-79
2023/06/15 10:01:04;;;;;;;5.80;2.70;;;22.90;64.20;;;;;;5085597;28;20548;-79
2023/06/15 10:03:31;;;;;;;11.35;2.90;;;22.90;63.60;;;;;;5095294;28;20048;-79
2023/06/15 10:05:59;;;;;;;6.22;2.95;;;22.80;63.20;;;;;;5059724;28;20052;-79
2023/06/15 10:08:28;;;;;;;10.30;2.72;;;22.80;62.90;;;;;;5044720;28;20050;-81
2023/06/15 10:10:55;;;;;;;5.68;2.85;;;22.70;63.50;;;;;;5077638;28;20044;-80
2023/06/15 10:13:41;;;;;;;5.80;2.63;;;22.70;65.00;;;;;;5069231;28;20044;-80
2023/06/15 10:16:07;;;;;;;5.25;3.05;;;22.70;65.60;;;;;;5053616;28;20080;-80
2023/06/15 10:18:33;;;;;;;5.07;2.53;;;22.90;65.10;;;;;;5045327;28;20051;-80
2023/06/15 10:21:00;;;;;;;5.88;3.05;;;23.00;65.40;;;;;;5068105;28;20049;-80
2023/06/15 10:23:27;;;;;;;5.18;2.63;;;23.10;62.50;;;;;;5058883;28;20071;-80
2023/06/15 10:25:55;;;;;;;7.47;2.83;;;23.10;61.80;;;;;;5083082;28;20037;-80
2023/06/15 10:28:25;;;;;;;5.07;2.40;;;23.20;62.70;;;;;;5069414;28;20127;-80
2023/06/15 10:31:09;;;;;;;4.90;2.55;;;23.30;63.80;;;;;;5046548;28;20058;-80
2023/06/15 10:33:54;;;;;;;9.15;2.95;;;23.40;64.50;;;;;;5096327;28;20577;-80
2023/06/15 10:36:26;;;;;;;8.95;3.25;;;23.50;62.40;;;;;;5075613;28;20048;-82
2023/06/15 10:39:14;;;;;;;6.43;2.72;;;23.60;60.20;;;;;;5061121;28;20040;-79
2023/06/15 10:41:40;;;;;;;;;;;23.60;61.00;;;;;;5055154;28;20479;-79
2023/06/15 10:44:05;;;;;;;6.03;2.80;;;23.60;63.30;;;;;;5060710;28;19908;-80
2023/06/15 10:46:33;;;;;;;4.97;2.75;;;23.60;62.80;;;;;;5044388;28;20032;-80
2023/06/15 10:49:06;;;;;;;7.75;2.95;;;23.60;60.20;;;;;;5065329;28;20377;-79
2023/06/15 10:51:40;;;;;;;5.05;3.00;;;23.80;58.90;;;;;;5030053;28;20373;-80
2023/06/15 10:54:19;;;;;;;4.75;2.80;;;23.70;62.00;;;;;;5066976;28;20469;-79
2023/06/15 10:56:48;;;;;;;9.23;3.15;;;23.80;61.40;;;;;;5095640;28;20457;-79
2023/06/15 10:59:14;;;;;;;7.07;3.03;;;23.90;59.10;;;;;;5085832;28;20063;-79
2023/06/15 11:01:41;;;;;;;4.60;2.90;;;23.90;59.50;;;;;;5083053;28;20044;-81
2023/06/15 11:04:29;;;;;;;6.15;2.50;;;24.00;59.40;;;;;;5076283;28;20036;-79
2023/06/15 11:06:56;;;;;;;6.00;2.75;;;24.10;60.30;;;;;;5044792;28;20040;-79
2023/06/15 11:09:23;;;;;;;8.60;2.65;;;24.20;61.60;;;;;;5066000;28;20048;-80
2023/06/15 11:11:51;;;;;;;7.30;3.25;;;24.20;58.40;;;;;;5040146;28;20071;-78
2023/06/15 11:14:19;;;;;;;7.20;3.08;;;24.10;58.10;;;;;;5072777;28;20428;-80
2023/06/15 11:16:45;;;;;;;4.32;2.65;;;24.20;60.00;;;;;;5048074;28;20762;-79
2023/06/15 11:19:11;;;;;;;7.45;2.88;;;24.40;59.10;;;;;;5070303;28;20110;-80
2023/06/15 11:21:41;;;;;;;5.78;2.70;;;23.90;56.20;;;;;;5058358;28;20374;-79
2023/06/15 11:24:13;;;;;;;5.10;3.17;;;23.50;57.20;;;;;;5061218;28;20124;-79
2023/06/15 11:26:40;;;;;;;7.55;2.67;;;23.50;58.00;;;;;;5042744;28;20445;-80
2023/06/15 11:29:08;;;;;;;5.90;2.70;;;23.70;57.50;;;;;;5054957;28;20055;-80
2023/06/15 11:31:34;;;;;;;10.73;3.75;;;23.90;56.50;;;;;;5075185;28;20067;-80
2023/06/15 11:34:00;;;;;;;9.48;2.67;;;24.10;57.10;;;;;;5067552;28;20454;-79
2023/06/15 11:36:26;;;;;;;7.55;2.83;;;24.10;56.30;;;;;;5038201;28;20045;-79
2023/06/15 11:38:54;;;;;;;5.88;2.53;;;24.30;57.80;;;;;;5060524;28;20045;-79
2023/06/15 11:41:20;;;;;;;6.05;2.75;;;24.20;57.60;;;;;;5085851;28;20056;-80
2023/06/15 11:43:50;;;;;;;5.82;2.35;;;24.20;57.50;;;;;;5080544;28;20043;-79
2023/06/15 11:46:17;;;;;;;8.43;3.10;;;24.10;56.50;;;;;;5062436;28;20052;-80
2023/06/15 11:48:44;;;;;;;6.93;2.50;;;24.10;58.10;;;;;;5040585;28;20052;-80
2023/06/15 11:51:11;;;;;;;8.20;3.25;;;24.20;58.10;;;;;;5060108;28;20044;-80
2023/06/15 11:53:39;;;;;;;5.03;2.60;;;24.30;58.10;;;;;;5065010;28;20048;-80
2023/06/15 11:56:14;;;;;;;5.05;2.55;;;24.40;59.20;;;;;;5046665;28;20048;-80
2023/06/15 11:58:41;;;;;;;7.70;2.90;;;24.50;57.40;;;;;;5062491;28;20045;-80
2023/06/15 12:01:07;;;;;;;7.07;2.97;;;24.70;57.40;;;;;;5046222;28;20400;-81
2023/06/15 12:03:37;;;;;;;6.82;2.97;;;24.50;56.30;;;;;;5042230;28;20037;-79
2023/06/15 12:06:03;;;;;;;7.25;2.58;;;24.50;57.00;;;;;;5057126;28;20036;-79
2023/06/15 12:08:30;;;;;;;7.30;2.38;;;24.30;55.80;;;;;;5076881;28;20130;-79
2023/06/15 12:10:56;;;;;;;7.70;2.80;;;24.00;56.30;;;;;;5061563;28;20063;-80
2023/06/15 12:13:25;;;;;;;5.07;2.67;;;23.80;55.50;;;;;;5060919;28;20776;-81
2023/06/15 12:15:51;;;;;;;11.23;2.95;;;23.40;55.50;;;;;;5082732;28;20491;-80
2023/06/15 12:18:17;;;;;;;6.88;2.92;;;23.40;56.00;;;;;;5069367;28;20056;-80
2023/06/15 12:20:50;;;;;;;9.80;2.53;;;23.50;56.60;;;;;;5035031;28;20043;-81
2023/06/15 12:23:30;;;;;;;4.32;2.55;;;23.60;58.00;;;;;;5061023;28;20110;-79
2023/06/15 12:25:56;;;;;;;9.07;3.05;;;23.80;58.30;;;;;;5061597;28;20032;-81
2023/06/15 12:28:23;;;;;;;65.45;7.50;;;24.00;58.70;;;;;;5066083;28;20114;-79
2023/06/15 12:30:49;;;;;;;74.93;7.68;;;24.20;59.00;;;;;;5090222;28;20360;-80
2023/06/15 12:33:25;;;;;;;31.75;4.60;;;24.40;59.60;;;;;;5059342;28;20192;-79
2023/06/15 12:35:51;;;;;;;36.72;5.35;;;24.60;58.10;;;;;;5069485;28;20063;-79
2023/06/15 12:38:17;;;;;;;31.08;4.65;;;24.90;57.70;;;;;;5079049;28;20143;-83
2023/06/15 12:40:44;;;;;;;14.23;3.65;;;24.90;57.90;;;;;;5080301;28;20068;-83
2023/06/15 12:43:10;;;;;;;27.42;4.25;;;25.30;55.90;;;;;;5058614;28;20041;-82
2023/06/15 12:45:36;;;;;;;24.90;4.50;;;25.10;54.90;;;;;;5079836;28;20463;-84